ADDS METAR Data INFO
IDs: Format: Raw Decoded Include TAF

Data at: 2302 UTC 21 Feb 2018

KBGF 212255Z AUTO 17009KT 10SM FEW070 BKN090 24/16 A3025 RMK
KBGF 212235Z AUTO 19005KT 10SM FEW070 BKN090 25/16 A3026 RMK
KBGF 212215Z AUTO 18008KT 10SM FEW090 26/16 A3026 RMK
KBGF 212155Z AUTO 20008KT 10SM FEW048 26/16 A3025 RMK
KBGF 212135Z AUTO 21010KT 10SM CLR 27/16 A3024 RMK
KBGF 212115Z AUTO 20009KT 10SM FEW050 26/16 A3025 RMK
KBGF 212055Z AUTO 19011KT 10SM FEW048 SCT060 26/16 A3025 RMK
KBGF 212035Z AUTO 18012KT 10SM SCT046 SCT060 BKN080 27/16 A3025 RMK
KBGF 212015Z AUTO 20009KT 10SM SCT046 SCT060 26/16 A3026 RMK
KBGF 211955Z AUTO 24012KT 10SM SCT046 SCT060 27/16 A3026 RMK
KBGF 211935Z AUTO 18009KT 10SM SCT043 BKN050 25/17 A3027 RMK
KBGF 211915Z AUTO 20012KT 10SM BKN039 BKN044 25/17 A3027 RMK
KBGF 211855Z AUTO 19011KT 10SM BKN038 BKN046 25/17 A3028 RMK
KBGF 211835Z AUTO 19010KT 10SM SCT038 BKN046 25/17 A3029 RMK
KBGF 211815Z AUTO 18013KT 10SM FEW036 SCT043 26/17 A3029 RMK
KBGF 211755Z AUTO 18011KT 10SM BKN034 BKN043 24/17 A3031 RMK
KBGF 211735Z AUTO 18013KT 10SM BKN032 BKN043 BKN085 23/17 A3032 RMK
KBGF 211715Z AUTO 19011KT 10SM FEW029 SCT043 SCT085 23/17 A3033 RMK
KBGF 211655Z AUTO 18010KT 10SM FEW028 BKN085 22/18 A3034 RMK
KBGF 211635Z AUTO 19010KT 10SM BKN085 22/18 A3034 RMK
KBGF 211615Z AUTO 18008KT 10SM SCT065 BKN075 21/18 A3035 RMK
KBGF 211555Z AUTO 17007KT 6SM FEW014 OVC065 20/18 A3035 RMK
KBGF 211535Z AUTO 19005KT 10SM FEW055 OVC070 20/18 A3036 RMK
KBGF 211515Z AUTO 18007KT 10SM FEW018 SCT027 OVC070 20/18 A3035 RMK
KBGF 201455Z AUTO 16012KT 10SM CLR 19/15 A3031 RMK
KBGF 211435Z AUTO 19009KT 3SM FEW006 SCT020 BKN025 19/18 A3035 RMK
KBGF 211415Z AUTO 17007KT 10SM SCT022 BKN031 OVC045 21/18 A3034 RMK
KBGF 211355Z AUTO 18007KT 10SM SCT023 BKN037 OVC047 21/18 A3033 RMK
KBGF 211335Z AUTO 17006KT 10SM FEW023 BKN028 OVC050 21/18 A3033 RMK
KBGF 211315Z AUTO 19006KT 10SM FEW029 BKN033 OVC090 21/17 A3032 RMK
KBGF 211255Z AUTO 19009KT 10SM SCT031 SCT060 BKN080 20/17 A3032 RMK
KBGF 210755Z AUTO 19005KT 10SM SCT025 BKN070 20/17 A3028 RMK
KBGF 210735Z AUTO 18009KT 10SM FEW075 SCT095 20/17 A3028 RMK
KBGF 210715Z AUTO 17011KT 10SM FEW080 BKN095 20/17 A3028 RMK
KBGF 210655Z AUTO 16014KT 10SM SCT080 OVC095 21/17 A3028 RMK
KBGF 210635Z AUTO 17011KT 10SM BKN095 20/17 A3028 RMK
KBGF 210615Z AUTO 16014KT 10SM OVC085 20/16 A3028 RMK
KBGF 210555Z AUTO 16014KT 10SM BKN085 21/16 A3028 RMK
KBGF 201515Z AUTO 16016KT 10SM CLR 20/15 A3030 RMK
KBGF 201455Z AUTO 16012KT 10SM CLR 19/15 A3031 RMK
KBGF 201435Z AUTO 15014KT 10SM CLR 17/14 A3031 RMK
KBGF 201415Z AUTO 16013KT 10SM FEW048 17/14 A3031 RMK
KBGF 201355Z AUTO 16010KT 10SM FEW048 17/14 A3030 RMK
KBGF 201335Z AUTO 16009KT 10SM CLR 17/14 A3029 RMK
KBGF 201315Z AUTO 15009KT 10SM CLR 16/14 A3029 RMK
KBGF 201255Z AUTO 15013KT 10SM CLR 16/13 A3027 RMK
KBGF 201235Z AUTO 15012KT 10SM CLR 16/14 A3027 RMK
KBGF 201215Z AUTO 15010KT 10SM CLR 16/14 A3027 RMK
KBGF 201155Z AUTO 16012KT 10SM CLR 16/14 A3026 RMK
KBGF 201135Z AUTO 16010KT 10SM CLR 16/14 A3027 RMK
KBGF 201115Z AUTO 15012KT 10SM CLR 17/14 A3026 RMK